sensor_id;sensor_type;location;lat;lon;timestamp;temperature;humidity
34837;DHT22;21053;50.848;4.652;2022-11-18T00:01:10;9.40;99.90
34837;DHT22;21053;50.848;4.652;2022-11-18T00:03:38;9.40;99.90
34837;DHT22;21053;50.848;4.652;2022-11-18T00:06:05;9.40;99.90
34837;DHT22;21053;50.848;4.652;2022-11-18T00:08:32;9.40;99.90
34837;DHT22;21053;50.848;4.652;2022-11-18T00:11:10;9.40;99.90
34837;DHT22;21053;50.848;4.652;2022-11-18T00:13:37;9.30;99.90
34837;DHT22;21053;50.848;4.652;2022-11-18T00:16:23;9.30;99.90
34837;DHT22;21053;50.848;4.652;2022-11-18T00:18:51;9.40;99.90
34837;DHT22;21053;50.848;4.652;2022-11-18T00:21:18;9.40;99.90
34837;DHT22;21053;50.848;4.652;2022-11-18T00:23:44;9.60;99.90
34837;DHT22;21053;50.848;4.652;2022-11-18T00:26:13;9.70;99.90
34837;DHT22;21053;50.848;4.652;2022-11-18T00:28:40;9.70;99.90
34837;DHT22;21053;50.848;4.652;2022-11-18T00:31:11;9.80;99.90
34837;DHT22;21053;50.848;4.652;2022-11-18T00:33:38;9.80;99.90
34837;DHT22;21053;50.848;4.652;2022-11-18T00:36:11;10.00;99.90
34837;DHT22;21053;50.848;4.652;2022-11-18T00:38:38;10.00;99.90
34837;DHT22;21053;50.848;4.652;2022-11-18T00:41:14;10.00;99.90
34837;DHT22;21053;50.848;4.652;2022-11-18T00:43:42;10.10;99.90
34837;DHT22;21053;50.848;4.652;2022-11-18T00:46:09;10.20;99.90
34837;DHT22;21053;50.848;4.652;2022-11-18T00:48:39;10.30;99.90
34837;DHT22;21053;50.848;4.652;2022-11-18T00:51:16;10.20;99.90
34837;DHT22;21053;50.848;4.652;2022-11-18T00:53:44;10.10;99.90
34837;DHT22;21053;50.848;4.652;2022-11-18T00:56:10;10.20;99.90
34837;DHT22;21053;50.848;4.652;2022-11-18T00:58:38;10.20;99.90
34837;DHT22;21053;50.848;4.652;2022-11-18T01:01:08;10.20;99.90
34837;DHT22;21053;50.848;4.652;2022-11-18T01:03:34;10.10;99.90
34837;DHT22;21053;50.848;4.652;2022-11-18T01:06:00;10.10;99.90
34837;DHT22;21053;50.848;4.652;2022-11-18T01:08:32;10.20;99.90
34837;DHT22;21053;50.848;4.652;2022-11-18T01:10:58;10.20;99.90
34837;DHT22;21053;50.848;4.652;2022-11-18T01:13:48;10.20;99.90
34837;DHT22;21053;50.848;4.652;2022-11-18T01:16:20;10.20;99.90
34837;DHT22;21053;50.848;4.652;2022-11-18T01:18:48;10.20;99.90
34837;DHT22;21053;50.848;4.652;2022-11-18T01:21:16;10.20;99.90
34837;DHT22;21053;50.848;4.652;2022-11-18T01:23:43;10.20;99.90
34837;DHT22;21053;50.848;4.652;2022-11-18T01:26:16;10.20;99.90
34837;DHT22;21053;50.848;4.652;2022-11-18T01:28:42;10.40;99.90
34837;DHT22;21053;50.848;4.652;2022-11-18T01:31:12;10.40;99.90
34837;DHT22;21053;50.848;4.652;2022-11-18T01:33:39;10.40;99.90
34837;DHT22;21053;50.848;4.652;2022-11-18T01:36:14;10.30;99.90
34837;DHT22;21053;50.848;4.652;2022-11-18T01:38:42;10.30;99.90
34837;DHT22;21053;50.848;4.652;2022-11-18T01:41:09;10.30;99.90
34837;DHT22;21053;50.848;4.652;2022-11-18T01:46:23;10.30;99.90
34837;DHT22;21053;50.848;4.652;2022-11-18T01:49:02;10.30;99.90
34837;DHT22;21053;50.848;4.652;2022-11-18T01:51:33;10.40;99.90
34837;DHT22;21053;50.848;4.652;2022-11-18T01:54:24;10.40;99.90
34837;DHT22;21053;50.848;4.652;2022-11-18T01:56:54;10.50;99.90
34837;DHT22;21053;50.848;4.652;2022-11-18T01:59:26;10.40;99.90
34837;DHT22;21053;50.848;4.652;2022-11-18T02:01:56;10.40;99.90
34837;DHT22;21053;50.848;4.652;2022-11-18T02:04:26;10.30;99.90
34837;DHT22;21053;50.848;4.652;2022-11-18T02:06:53;10.20;99.90
34837;DHT22;21053;50.848;4.652;2022-11-18T02:09:20;10.20;99.90
34837;DHT22;21053;50.848;4.652;2022-11-18T02:11:48;10.20;99.90
34837;DHT22;21053;50.848;4.652;2022-11-18T02:14:26;10.10;99.90
34837;DHT22;21053;50.848;4.652;2022-11-18T02:17:17;10.10;99.90
34837;DHT22;21053;50.848;4.652;2022-11-18T02:36:04;9.90;99.90
34837;DHT22;21053;50.848;4.652;2022-11-18T02:38:40;9.90;99.90
34837;DHT22;21053;50.848;4.652;2022-11-18T02:41:09;9.80;99.90
34837;DHT22;21053;50.848;4.652;2022-11-18T02:43:44;9.80;99.90
34837;DHT22;21053;50.848;4.652;2022-11-18T02:46:18;9.70;99.90
34837;DHT22;21053;50.848;4.652;2022-11-18T02:48:48;9.60;99.90
34837;DHT22;21053;50.848;4.652;2022-11-18T02:51:18;9.60;99.90
34837;DHT22;21053;50.848;4.652;2022-11-18T02:53:48;9.60;99.90
34837;DHT22;21053;50.848;4.652;2022-11-18T02:56:17;9.50;99.90
34837;DHT22;21053;50.848;4.652;2022-11-18T02:58:46;9.40;99.90
34837;DHT22;21053;50.848;4.652;2022-11-18T03:01:22;9.50;99.90
34837;DHT22;21053;50.848;4.652;2022-11-18T03:03:50;9.40;99.90
34837;DHT22;21053;50.848;4.652;2022-11-18T03:06:32;9.40;99.90
34837;DHT22;21053;50.848;4.652;2022-11-18T03:12:06;9.30;99.90
34837;DHT22;21053;50.848;4.652;2022-11-18T03:23:00;9.10;99.90
34837;DHT22;21053;50.848;4.652;2022-11-18T03:25:49;9.10;99.90
34837;DHT22;21053;50.848;4.652;2022-11-18T03:31:11;8.90;99.90
34837;DHT22;21053;50.848;4.652;2022-11-18T03:33:42;8.80;99.90
34837;DHT22;21053;50.848;4.652;2022-11-18T03:36:11;8.80;99.90
34837;DHT22;21053;50.848;4.652;2022-11-18T03:38:44;8.70;99.90
34837;DHT22;21053;50.848;4.652;2022-11-18T03:41:14;8.60;99.90
34837;DHT22;21053;50.848;4.652;2022-11-18T03:43:52;8.50;99.90
34837;DHT22;21053;50.848;4.652;2022-11-18T03:46:41;8.40;99.90
34837;DHT22;21053;50.848;4.652;2022-11-18T03:49:15;8.30;99.90
34837;DHT22;21053;50.848;4.652;2022-11-18T03:51:57;8.40;99.90
34837;DHT22;21053;50.848;4.652;2022-11-18T03:54:29;8.40;99.90
34837;DHT22;21053;50.848;4.652;2022-11-18T03:57:02;8.40;99.90
34837;DHT22;21053;50.848;4.652;2022-11-18T03:59:33;8.40;99.90
34837;DHT22;21053;50.848;4.652;2022-11-18T04:02:24;8.30;99.90
34837;DHT22;21053;50.848;4.652;2022-11-18T04:04:54;8.20;99.90
34837;DHT22;21053;50.848;4.652;2022-11-18T04:07:23;8.30;99.90
34837;DHT22;21053;50.848;4.652;2022-11-18T04:10:19;8.30;99.90
34837;DHT22;21053;50.848;4.652;2022-11-18T04:12:50;8.30;99.90
34837;DHT22;21053;50.848;4.652;2022-11-18T04:15:18;8.30;99.90
34837;DHT22;21053;50.848;4.652;2022-11-18T04:17:43;8.30;99.90
34837;DHT22;21053;50.848;4.652;2022-11-18T04:20:17;8.30;99.90
34837;DHT22;21053;50.848;4.652;2022-11-18T04:22:46;8.20;99.90
34837;DHT22;21053;50.848;4.652;2022-11-18T04:25:12;8.30;99.90
34837;DHT22;21053;50.848;4.652;2022-11-18T04:27:37;8.20;99.90
34837;DHT22;21053;50.848;4.652;2022-11-18T04:30:07;8.10;99.90
34837;DHT22;21053;50.848;4.652;2022-11-18T04:32:35;8.00;99.90
34837;DHT22;21053;50.848;4.652;2022-11-18T04:35:03;8.00;99.90
34837;DHT22;21053;50.848;4.652;2022-11-18T04:37:34;8.00;99.90
34837;DHT22;21053;50.848;4.652;2022-11-18T04:40:04;8.00;99.90
34837;DHT22;21053;50.848;4.652;2022-11-18T04:42:30;7.90;99.90
34837;DHT22;21053;50.848;4.652;2022-11-18T04:44:59;7.90;99.90
34837;DHT22;21053;50.848;4.652;2022-11-18T04:47:28;7.90;99.90
34837;DHT22;21053;50.848;4.652;2022-11-18T04:49:54;7.90;99.90
34837;DHT22;21053;50.848;4.652;2022-11-18T04:52:21;7.90;99.90
34837;DHT22;21053;50.848;4.652;2022-11-18T04:54:49;7.80;99.90
34837;DHT22;21053;50.848;4.652;2022-11-18T04:57:15;7.70;99.90
34837;DHT22;21053;50.848;4.652;2022-11-18T04:59:41;7.80;99.90
34837;DHT22;21053;50.848;4.652;2022-11-18T05:02:07;7.80;99.90
34837;DHT22;21053;50.848;4.652;2022-11-18T05:04:34;7.80;99.90
34837;DHT22;21053;50.848;4.652;2022-11-18T05:07:03;7.70;99.90
34837;DHT22;21053;50.848;4.652;2022-11-18T05:09:29;7.70;99.90
34837;DHT22;21053;50.848;4.652;2022-11-18T05:11:57;7.70;99.90
34837;DHT22;21053;50.848;4.652;2022-11-18T05:14:44;7.70;99.90
34837;DHT22;21053;50.848;4.652;2022-11-18T05:17:11;7.70;99.90
34837;DHT22;21053;50.848;4.652;2022-11-18T05:19:38;7.60;99.90
34837;DHT22;21053;50.848;4.652;2022-11-18T05:22:06;7.60;99.90
34837;DHT22;21053;50.848;4.652;2022-11-18T05:24:34;7.60;99.90
34837;DHT22;21053;50.848;4.652;2022-11-18T05:27:00;7.70;99.90
34837;DHT22;21053;50.848;4.652;2022-11-18T05:29:28;7.60;99.90
34837;DHT22;21053;50.848;4.652;2022-11-18T05:31:57;7.60;99.90
34837;DHT22;21053;50.848;4.652;2022-11-18T05:34:26;7.60;99.90
34837;DHT22;21053;50.848;4.652;2022-11-18T05:36:53;7.60;99.90
34837;DHT22;21053;50.848;4.652;2022-11-18T05:39:19;7.50;99.90
34837;DHT22;21053;50.848;4.652;2022-11-18T05:41:48;7.40;99.90
34837;DHT22;21053;50.848;4.652;2022-11-18T05:44:32;7.50;99.90
34837;DHT22;21053;50.848;4.652;2022-11-18T05:46:59;7.50;99.90
34837;DHT22;21053;50.848;4.652;2022-11-18T05:49:28;7.60;99.90
34837;DHT22;21053;50.848;4.652;2022-11-18T05:51:54;7.50;99.90
34837;DHT22;21053;50.848;4.652;2022-11-18T05:54:23;7.50;99.90
34837;DHT22;21053;50.848;4.652;2022-11-18T05:56:50;7.50;99.90
34837;DHT22;21053;50.848;4.652;2022-11-18T05:59:19;7.60;99.90
34837;DHT22;21053;50.848;4.652;2022-11-18T06:02:07;7.60;99.90
34837;DHT22;21053;50.848;4.652;2022-11-18T06:04:50;7.50;99.90
34837;DHT22;21053;50.848;4.652;2022-11-18T06:07:28;7.50;99.90
34837;DHT22;21053;50.848;4.652;2022-11-18T06:09:59;7.40;99.90
34837;DHT22;21053;50.848;4.652;2022-11-18T06:12:29;7.40;99.90
34837;DHT22;21053;50.848;4.652;2022-11-18T06:15:20;7.30;99.90
34837;DHT22;21053;50.848;4.652;2022-11-18T06:18:02;7.20;99.90
34837;DHT22;21053;50.848;4.652;2022-11-18T06:20:29;7.30;99.90
34837;DHT22;21053;50.848;4.652;2022-11-18T06:22:59;7.20;99.90
34837;DHT22;21053;50.848;4.652;2022-11-18T06:25:29;7.20;99.90
34837;DHT22;21053;50.848;4.652;2022-11-18T06:27:59;7.20;99.90
34837;DHT22;21053;50.848;4.652;2022-11-18T06:30:29;8.00;99.90
34837;DHT22;21053;50.848;4.652;2022-11-18T06:32:57;7.30;99.90
34837;DHT22;21053;50.848;4.652;2022-11-18T06:35:23;7.20;99.90
34837;DHT22;21053;50.848;4.652;2022-11-18T06:37:51;7.20;99.90
34837;DHT22;21053;50.848;4.652;2022-11-18T06:40:19;7.20;99.90
34837;DHT22;21053;50.848;4.652;2022-11-18T06:42:47;7.20;99.90
34837;DHT22;21053;50.848;4.652;2022-11-18T06:45:34;7.20;99.90
34837;DHT22;21053;50.848;4.652;2022-11-18T06:48:01;7.20;99.90
34837;DHT22;21053;50.848;4.652;2022-11-18T06:50:33;7.20;99.90
34837;DHT22;21053;50.848;4.652;2022-11-18T06:53:09;7.30;99.90
34837;DHT22;21053;50.848;4.652;2022-11-18T06:55:35;7.30;99.90
34837;DHT22;21053;50.848;4.652;2022-11-18T06:58:00;7.20;99.90
34837;DHT22;21053;50.848;4.652;2022-11-18T07:00:28;7.20;99.90
34837;DHT22;21053;50.848;4.652;2022-11-18T07:02:57;7.20;99.90
34837;DHT22;21053;50.848;4.652;2022-11-18T07:05:23;7.20;99.90
34837;DHT22;21053;50.848;4.652;2022-11-18T07:07:50;7.10;99.90
34837;DHT22;21053;50.848;4.652;2022-11-18T07:10:18;7.20;99.90
34837;DHT22;21053;50.848;4.652;2022-11-18T07:12:46;7.20;99.90
34837;DHT22;21053;50.848;4.652;2022-11-18T07:15:11;7.30;99.90
34837;DHT22;21053;50.848;4.652;2022-11-18T07:17:38;7.30;99.90
34837;DHT22;21053;50.848;4.652;2022-11-18T07:20:05;7.40;99.90
34837;DHT22;21053;50.848;4.652;2022-11-18T07:22:33;7.40;99.90
34837;DHT22;21053;50.848;4.652;2022-11-18T07:25:00;7.50;99.90
34837;DHT22;21053;50.848;4.652;2022-11-18T07:27:27;8.90;99.90
34837;DHT22;21053;50.848;4.652;2022-11-18T07:29:52;7.60;99.90
34837;DHT22;21053;50.848;4.652;2022-11-18T07:32:21;7.60;99.90
34837;DHT22;21053;50.848;4.652;2022-11-18T07:34:50;7.80;99.90
34837;DHT22;21053;50.848;4.652;2022-11-18T07:37:18;7.90;99.90
34837;DHT22;21053;50.848;4.652;2022-11-18T07:39:47;8.10;99.90
34837;DHT22;21053;50.848;4.652;2022-11-18T07:42:15;8.20;99.90
34837;DHT22;21053;50.848;4.652;2022-11-18T07:44:42;8.40;99.90
34837;DHT22;21053;50.848;4.652;2022-11-18T07:47:08;8.50;99.90
34837;DHT22;21053;50.848;4.652;2022-11-18T07:49:35;8.50;99.90
34837;DHT22;21053;50.848;4.652;2022-11-18T07:52:02;8.70;99.90
34837;DHT22;21053;50.848;4.652;2022-11-18T07:54:31;8.80;99.90
34837;DHT22;21053;50.848;4.652;2022-11-18T07:56:59;8.90;99.90
34837;DHT22;21053;50.848;4.652;2022-11-18T07:59:28;9.00;99.90
34837;DHT22;21053;50.848;4.652;2022-11-18T08:01:55;9.00;99.90
34837;DHT22;21053;50.848;4.652;2022-11-18T08:04:25;9.10;99.90
34837;DHT22;21053;50.848;4.652;2022-11-18T08:06:52;9.20;99.90
34837;DHT22;21053;50.848;4.652;2022-11-18T08:09:19;9.20;99.90
34837;DHT22;21053;50.848;4.652;2022-11-18T08:11:48;9.30;99.90
34837;DHT22;21053;50.848;4.652;2022-11-18T08:14:13;9.50;99.90
34837;DHT22;21053;50.848;4.652;2022-11-18T08:16:42;9.60;99.90
34837;DHT22;21053;50.848;4.652;2022-11-18T08:19:09;9.80;99.90
34837;DHT22;21053;50.848;4.652;2022-11-18T08:21:34;9.80;99.90
34837;DHT22;21053;50.848;4.652;2022-11-18T08:28:37;9.80;99.90
34837;DHT22;21053;50.848;4.652;2022-11-18T08:33:41;9.90;99.90
34837;DHT22;21053;50.848;4.652;2022-11-18T08:36:18;9.90;99.90
34837;DHT22;21053;50.848;4.652;2022-11-18T08:39:28;9.90;99.90
34837;DHT22;21053;50.848;4.652;2022-11-18T08:41:57;9.90;99.90
34837;DHT22;21053;50.848;4.652;2022-11-18T08:44:24;10.00;99.90
34837;DHT22;21053;50.848;4.652;2022-11-18T08:46:51;10.20;99.90
34837;DHT22;21053;50.848;4.652;2022-11-18T08:49:18;10.10;99.90
34837;DHT22;21053;50.848;4.652;2022-11-18T08:51:47;10.20;99.90
34837;DHT22;21053;50.848;4.652;2022-11-18T08:54:13;10.40;99.90
34837;DHT22;21053;50.848;4.652;2022-11-18T08:56:39;10.40;99.90
34837;DHT22;21053;50.848;4.652;2022-11-18T08:59:05;10.40;99.90
34837;DHT22;21053;50.848;4.652;2022-11-18T09:01:36;10.40;99.90
34837;DHT22;21053;50.848;4.652;2022-11-18T09:04:02;10.30;99.90
34837;DHT22;21053;50.848;4.652;2022-11-18T09:06:29;10.30;99.90
34837;DHT22;21053;50.848;4.652;2022-11-18T09:08:55;10.50;99.90
34837;DHT22;21053;50.848;4.652;2022-11-18T09:11:24;10.60;99.90
34837;DHT22;21053;50.848;4.652;2022-11-18T09:13:56;10.70;99.90
34837;DHT22;21053;50.848;4.652;2022-11-18T09:16:27;10.80;99.90
34837;DHT22;21053;50.848;4.652;2022-11-18T09:18:55;10.80;99.90
34837;DHT22;21053;50.848;4.652;2022-11-18T09:21:22;10.90;99.90
34837;DHT22;21053;50.848;4.652;2022-11-18T09:23:48;10.90;99.90
34837;DHT22;21053;50.848;4.652;2022-11-18T09:26:19;10.90;99.90
34837;DHT22;21053;50.848;4.652;2022-11-18T09:28:52;10.90;99.90
34837;DHT22;21053;50.848;4.652;2022-11-18T09:31:19;11.00;99.90
34837;DHT22;21053;50.848;4.652;2022-11-18T09:33:44;11.10;99.90
34837;DHT22;21053;50.848;4.652;2022-11-18T09:36:26;11.20;99.90
34837;DHT22;21053;50.848;4.652;2022-11-18T09:38:52;11.40;99.90
34837;DHT22;21053;50.848;4.652;2022-11-18T09:49:39;11.40;99.90
34837;DHT22;21053;50.848;4.652;2022-11-18T09:52:18;11.50;99.90
34837;DHT22;21053;50.848;4.652;2022-11-18T09:54:50;11.50;99.90
34837;DHT22;21053;50.848;4.652;2022-11-18T09:57:24;11.40;99.90
34837;DHT22;21053;50.848;4.652;2022-11-18T09:59:51;11.50;99.90
34837;DHT22;21053;50.848;4.652;2022-11-18T10:05:21;11.60;99.90
34837;DHT22;21053;50.848;4.652;2022-11-18T10:13:53;11.70;99.90
34837;DHT22;21053;50.848;4.652;2022-11-18T10:24:37;12.00;99.90
34837;DHT22;21053;50.848;4.652;2022-11-18T10:27:09;12.10;99.90
34837;DHT22;21053;50.848;4.652;2022-11-18T10:29:36;11.90;99.90
34837;DHT22;21053;50.848;4.652;2022-11-18T10:32:11;12.00;99.90
34837;DHT22;21053;50.848;4.652;2022-11-18T10:37:26;12.20;99.90
34837;DHT22;21053;50.848;4.652;2022-11-18T10:39:58;12.30;99.90
34837;DHT22;21053;50.848;4.652;2022-11-18T10:42:34;12.30;99.90
34837;DHT22;21053;50.848;4.652;2022-11-18T10:45:16;12.40;99.90
34837;DHT22;21053;50.848;4.652;2022-11-18T10:48:17;12.50;99.90
34837;DHT22;21053;50.848;4.652;2022-11-18T10:50:47;12.60;99.90
34837;DHT22;21053;50.848;4.652;2022-11-18T10:53:34;12.60;99.90
34837;DHT22;21053;50.848;4.652;2022-11-18T10:56:05;12.50;99.90
34837;DHT22;21053;50.848;4.652;2022-11-18T10:58:45;12.50;99.90
34837;DHT22;21053;50.848;4.652;2022-11-18T11:01:22;12.60;99.90
34837;DHT22;21053;50.848;4.652;2022-11-18T11:04:15;12.50;99.90
34837;DHT22;21053;50.848;4.652;2022-11-18T11:06:43;12.50;99.90
34837;DHT22;21053;50.848;4.652;2022-11-18T11:09:31;12.50;99.90
34837;DHT22;21053;50.848;4.652;2022-11-18T11:12:11;12.40;99.90
34837;DHT22;21053;50.848;4.652;2022-11-18T11:14:50;12.50;99.90
34837;DHT22;21053;50.848;4.652;2022-11-18T11:17:28;12.40;99.90
34837;DHT22;21053;50.848;4.652;2022-11-18T11:20:09;12.50;99.90
34837;DHT22;21053;50.848;4.652;2022-11-18T11:22:43;12.30;99.90
34837;DHT22;21053;50.848;4.652;2022-11-18T11:25:28;12.40;99.90
34837;DHT22;21053;50.848;4.652;2022-11-18T11:31:17;12.30;99.90
34837;DHT22;21053;50.848;4.652;2022-11-18T11:34:16;12.30;99.90
34837;DHT22;21053;50.848;4.652;2022-11-18T11:50:25;12.50;99.90
34837;DHT22;21053;50.848;4.652;2022-11-18T11:58:11;12.60;99.90
34837;DHT22;21053;50.848;4.652;2022-11-18T12:00:57;12.70;99.90
34837;DHT22;21053;50.848;4.652;2022-11-18T12:03:46;12.70;99.90
34837;DHT22;21053;50.848;4.652;2022-11-18T12:06:13;12.80;99.90
34837;DHT22;21053;50.848;4.652;2022-11-18T12:11:47;12.70;99.90
34837;DHT22;21053;50.848;4.652;2022-11-18T12:14:40;12.90;99.90
34837;DHT22;21053;50.848;4.652;2022-11-18T12:17:20;13.00;99.90
34837;DHT22;21053;50.848;4.652;2022-11-18T12:19:53;12.90;99.90
34837;DHT22;21053;50.848;4.652;2022-11-18T12:22:20;12.90;99.90
34837;DHT22;21053;50.848;4.652;2022-11-18T12:24:47;13.00;99.90
34837;DHT22;21053;50.848;4.652;2022-11-18T12:29:58;12.80;99.90
34837;DHT22;21053;50.848;4.652;2022-11-18T12:32:39;12.80;99.90
34837;DHT22;21053;50.848;4.652;2022-11-18T12:37:56;12.70;99.90
34837;DHT22;21053;50.848;4.652;2022-11-18T12:51:55;12.90;99.90
34837;DHT22;21053;50.848;4.652;2022-11-18T12:54:24;13.00;99.90
34837;DHT22;21053;50.848;4.652;2022-11-18T12:56:53;13.10;99.90
34837;DHT22;21053;50.848;4.652;2022-11-18T12:59:34;13.10;99.90
34837;DHT22;21053;50.848;4.652;2022-11-18T13:04:38;13.00;99.90
34837;DHT22;21053;50.848;4.652;2022-11-18T13:07:09;12.90;99.90
34837;DHT22;21053;50.848;4.652;2022-11-18T13:09:59;12.90;99.90
34837;DHT22;21053;50.848;4.652;2022-11-18T13:12:28;12.80;99.90
34837;DHT22;21053;50.848;4.652;2022-11-18T13:14:56;12.90;99.90
34837;DHT22;21053;50.848;4.652;2022-11-18T13:17:43;12.80;99.90
34837;DHT22;21053;50.848;4.652;2022-11-18T13:20:34;12.80;99.90
34837;DHT22;21053;50.848;4.652;2022-11-18T13:23:02;12.70;99.90
34837;DHT22;21053;50.848;4.652;2022-11-18T13:25:50;12.70;99.90
34837;DHT22;21053;50.848;4.652;2022-11-18T13:28:27;12.80;99.90
34837;DHT22;21053;50.848;4.652;2022-11-18T13:31:02;12.70;99.90
34837;DHT22;21053;50.848;4.652;2022-11-18T13:33:39;12.60;99.90
34837;DHT22;21053;50.848;4.652;2022-11-18T13:36:20;12.50;99.90
34837;DHT22;21053;50.848;4.652;2022-11-18T13:39:05;12.50;99.90
34837;DHT22;21053;50.848;4.652;2022-11-18T13:41:33;12.40;99.90
34837;DHT22;21053;50.848;4.652;2022-11-18T13:44:19;12.50;99.90
34837;DHT22;21053;50.848;4.652;2022-11-18T13:46:52;12.50;99.90
34837;DHT22;21053;50.848;4.652;2022-11-18T13:49:49;12.50;99.90
34837;DHT22;21053;50.848;4.652;2022-11-18T13:52:24;12.60;99.90
34837;DHT22;21053;50.848;4.652;2022-11-18T13:54:55;12.50;99.90
34837;DHT22;21053;50.848;4.652;2022-11-18T13:57:24;12.50;99.90
34837;DHT22;21053;50.848;4.652;2022-11-18T13:59:52;12.40;99.90
34837;DHT22;21053;50.848;4.652;2022-11-18T14:02:22;12.50;99.90
34837;DHT22;21053;50.848;4.652;2022-11-18T14:04:54;12.40;99.90
34837;DHT22;21053;50.848;4.652;2022-11-18T14:07:32;12.50;99.90
34837;DHT22;21053;50.848;4.652;2022-11-18T14:12:33;12.50;99.90
34837;DHT22;21053;50.848;4.652;2022-11-18T14:18:01;12.50;99.90
34837;DHT22;21053;50.848;4.652;2022-11-18T14:20:30;12.40;99.90
34837;DHT22;21053;50.848;4.652;2022-11-18T14:23:00;12.50;99.90
34837;DHT22;21053;50.848;4.652;2022-11-18T14:25:31;12.40;99.90
34837;DHT22;21053;50.848;4.652;2022-11-18T14:30:57;12.30;99.90
34837;DHT22;21053;50.848;4.652;2022-11-18T14:33:25;12.30;99.90
34837;DHT22;21053;50.848;4.652;2022-11-18T14:38:29;12.20;99.90
34837;DHT22;21053;50.848;4.652;2022-11-18T14:40:56;12.20;99.90
34837;DHT22;21053;50.848;4.652;2022-11-18T14:43:23;12.20;99.90
34837;DHT22;21053;50.848;4.652;2022-11-18T14:46:02;12.20;99.90
34837;DHT22;21053;50.848;4.652;2022-11-18T14:48:29;12.20;99.90
34837;DHT22;21053;50.848;4.652;2022-11-18T14:50:56;12.30;99.90
34837;DHT22;21053;50.848;4.652;2022-11-18T14:53:22;12.30;99.90
34837;DHT22;21053;50.848;4.652;2022-11-18T14:55:51;12.40;99.90
34837;DHT22;21053;50.848;4.652;2022-11-18T14:58:19;12.40;99.90
34837;DHT22;21053;50.848;4.652;2022-11-18T15:03:25;12.30;99.90
34837;DHT22;21053;50.848;4.652;2022-11-18T15:05:51;12.30;99.90
34837;DHT22;21053;50.848;4.652;2022-11-18T15:08:18;12.20;99.90
34837;DHT22;21053;50.848;4.652;2022-11-18T15:10:47;12.10;99.90
34837;DHT22;21053;50.848;4.652;2022-11-18T15:13:13;12.20;99.90
34837;DHT22;21053;50.848;4.652;2022-11-18T15:15:40;12.20;99.90
34837;DHT22;21053;50.848;4.652;2022-11-18T15:18:08;12.20;99.90
34837;DHT22;21053;50.848;4.652;2022-11-18T15:20:34;12.10;99.90
34837;DHT22;21053;50.848;4.652;2022-11-18T15:23:02;12.10;99.90
34837;DHT22;21053;50.848;4.652;2022-11-18T15:25:27;12.20;99.90
34837;DHT22;21053;50.848;4.652;2022-11-18T15:27:54;12.20;99.90
34837;DHT22;21053;50.848;4.652;2022-11-18T15:30:23;12.20;99.90
34837;DHT22;21053;50.848;4.652;2022-11-18T15:32:51;12.20;99.90
34837;DHT22;21053;50.848;4.652;2022-11-18T15:35:16;12.20;99.90
34837;DHT22;21053;50.848;4.652;2022-11-18T15:37:42;12.10;99.90
34837;DHT22;21053;50.848;4.652;2022-11-18T15:40:09;12.20;99.90
34837;DHT22;21053;50.848;4.652;2022-11-18T15:42:36;12.10;99.90
34837;DHT22;21053;50.848;4.652;2022-11-18T15:45:03;12.10;99.90
34837;DHT22;21053;50.848;4.652;2022-11-18T15:49:56;12.10;99.90
34837;DHT22;21053;50.848;4.652;2022-11-18T15:52:23;12.10;99.90
34837;DHT22;21053;50.848;4.652;2022-11-18T15:54:50;12.00;99.90
34837;DHT22;21053;50.848;4.652;2022-11-18T15:57:19;12.00;99.90
34837;DHT22;21053;50.848;4.652;2022-11-18T15:59:45;11.90;99.90
34837;DHT22;21053;50.848;4.652;2022-11-18T16:02:13;11.80;99.90
34837;DHT22;21053;50.848;4.652;2022-11-18T16:04:40;11.80;99.90
34837;DHT22;21053;50.848;4.652;2022-11-18T16:07:12;11.70;99.90
34837;DHT22;21053;50.848;4.652;2022-11-18T16:09:38;11.80;99.90
34837;DHT22;21053;50.848;4.652;2022-11-18T16:12:22;11.80;99.90
34837;DHT22;21053;50.848;4.652;2022-11-18T16:15:06;11.70;99.90
34837;DHT22;21053;50.848;4.652;2022-11-18T16:17:54;11.80;99.90
34837;DHT22;21053;50.848;4.652;2022-11-18T16:20:21;11.90;99.90
34837;DHT22;21053;50.848;4.652;2022-11-18T16:22:55;11.90;99.90
34837;DHT22;21053;50.848;4.652;2022-11-18T16:25:22;11.80;99.90
34837;DHT22;21053;50.848;4.652;2022-11-18T16:27:50;11.80;99.90
34837;DHT22;21053;50.848;4.652;2022-11-18T16:30:16;11.70;99.90
34837;DHT22;21053;50.848;4.652;2022-11-18T16:33:03;11.80;99.90
34837;DHT22;21053;50.848;4.652;2022-11-18T16:35:30;11.80;99.90
34837;DHT22;21053;50.848;4.652;2022-11-18T16:37:56;11.80;99.90
34837;DHT22;21053;50.848;4.652;2022-11-18T16:40:23;11.70;99.90
34837;DHT22;21053;50.848;4.652;2022-11-18T16:42:51;11.70;99.90
34837;DHT22;21053;50.848;4.652;2022-11-18T16:45:17;11.70;99.90
34837;DHT22;21053;50.848;4.652;2022-11-18T16:47:46;11.70;99.90
34837;DHT22;21053;50.848;4.652;2022-11-18T16:50:15;11.70;99.90
34837;DHT22;21053;50.848;4.652;2022-11-18T16:52:42;11.60;99.90
34837;DHT22;21053;50.848;4.652;2022-11-18T16:55:08;11.60;99.90
34837;DHT22;21053;50.848;4.652;2022-11-18T16:57:37;11.60;99.90
34837;DHT22;21053;50.848;4.652;2022-11-18T17:00:06;11.50;99.90
34837;DHT22;21053;50.848;4.652;2022-11-18T17:02:33;11.50;99.90
34837;DHT22;21053;50.848;4.652;2022-11-18T17:04:59;11.50;99.90
34837;DHT22;21053;50.848;4.652;2022-11-18T17:07:28;11.40;99.90
34837;DHT22;21053;50.848;4.652;2022-11-18T17:09:55;11.50;99.90
34837;DHT22;21053;50.848;4.652;2022-11-18T17:12:21;11.40;99.90
34837;DHT22;21053;50.848;4.652;2022-11-18T17:14:47;11.50;99.90
34837;DHT22;21053;50.848;4.652;2022-11-18T17:17:15;11.50;99.90
34837;DHT22;21053;50.848;4.652;2022-11-18T17:19:41;11.60;99.90
34837;DHT22;21053;50.848;4.652;2022-11-18T17:22:07;11.50;99.90
34837;DHT22;21053;50.848;4.652;2022-11-18T17:24:33;11.50;99.90
34837;DHT22;21053;50.848;4.652;2022-11-18T17:27:02;11.60;99.90
34837;DHT22;21053;50.848;4.652;2022-11-18T17:29:31;11.60;99.90
34837;DHT22;21053;50.848;4.652;2022-11-18T17:31:57;11.40;99.90
34837;DHT22;21053;50.848;4.652;2022-11-18T17:34:26;11.40;99.90
34837;DHT22;21053;50.848;4.652;2022-11-18T17:36:55;11.50;99.90
34837;DHT22;21053;50.848;4.652;2022-11-18T17:39:22;11.40;99.90
34837;DHT22;21053;50.848;4.652;2022-11-18T17:41:51;11.40;99.90
34837;DHT22;21053;50.848;4.652;2022-11-18T17:44:36;11.30;99.90
34837;DHT22;21053;50.848;4.652;2022-11-18T17:47:04;11.40;99.90
34837;DHT22;21053;50.848;4.652;2022-11-18T17:49:32;11.40;99.90
34837;DHT22;21053;50.848;4.652;2022-11-18T17:52:01;11.50;99.90
34837;DHT22;21053;50.848;4.652;2022-11-18T17:54:29;11.50;99.90
34837;DHT22;21053;50.848;4.652;2022-11-18T17:56:55;11.50;99.90
34837;DHT22;21053;50.848;4.652;2022-11-18T17:59:23;11.60;99.90
34837;DHT22;21053;50.848;4.652;2022-11-18T18:01:49;11.60;99.90
34837;DHT22;21053;50.848;4.652;2022-11-18T18:04:16;11.60;99.90
34837;DHT22;21053;50.848;4.652;2022-11-18T18:06:50;11.50;99.90
34837;DHT22;21053;50.848;4.652;2022-11-18T18:09:18;11.60;99.90
34837;DHT22;21053;50.848;4.652;2022-11-18T18:11:45;11.50;99.90